Pu Dun — XUUB9 — position and weather

sailwx.info

Track history (hours):
 
Tides and Currents Weather Stations Pressure Air Temp Water Temp Dewpoint Dewpoint Depression Visibility Wind Speed Wind Dir Waves Ship Positions

Pu Dun

Last reported at 2015-Jul-02 12:13 UTC. Time now 2015-Jul-06 11:25 UTC.
Position N 37°17' E 123°21'.

Length 75 m; draft 5 m.

Type: Cargo ship. MMSI: 515213000.

Date/timePositionNaut miles runAvg speedWind from/ knotsBaromVisibWave heightAir tempDewpointWater temp
2015-Jul-02 12:13N 37°17' E 123°21'17 8.8
2015-Jul-02 10:14N 37°30' E 123°06'17 8.9
2015-Jul-02 08:19N 37°39' E 122°48'18 9.9
2015-Jul-02 06:31N 37°49' E 122°29'1110.1
2015-Jul-02 05:27N 37°54' E 122°18'910.0
2015-Jul-02 04:33N 37°59' E 122°08'132 9.9
2015-Jul-01 15:14N 38°42' E 119°29'6910.2
2015-Jul-01 08:29N 38°55' E 118°03'9 9.9
2015-Jul-01 07:33N 38°57' E 117°51'4 4.0
2015-Jul-01 06:33N 38°58' E 117°46'0 0.0
2015-Jul-01 05:33N 38°58' E 117°46'0 0.0
2015-Jul-01 04:33N 38°58' E 117°46'0 0.0
2015-Jul-01 03:33N 38°58' E 117°46'0 0.0
2015-Jul-01 02:33N 38°58' E 117°46'0 0.0
2015-Jul-01 01:33N 38°58' E 117°46'0 0.0
2015-Jul-01 00:33N 38°58' E 117°46'0 0.0
2015-Jun-30 23:33N 38°58' E 117°46'2 2.2
2015-Jun-30 22:33N 38°58' E 117°49'7 3.4
2015-Jun-30 20:27N 38°58' E 117°58'0 0.0
2015-Jun-30 07:04N 38°58' E 117°58'  
2015-Jun-27 21:24N 38°46' E 119°15'8 9.9
2015-Jun-27 20:33N 38°45' E 119°25'10 9.7
2015-Jun-27 19:32N 38°44' E 119°38'9210.2
2015-Jun-27 10:32N 38°23' E 121°32'1110.7
2015-Jun-27 09:33N 38°19' E 121°44'1110.9
2015-Jun-27 08:32N 38°14' E 121°57'1110.9
2015-Jun-27 07:33N 38°10' E 122°10'1111.0
2015-Jun-27 06:31N 38°05' E 122°23'2311.1
2015-Jun-27 04:26N 37°57' E 122°50'  
Track history (hours):
 
Tides and Currents Weather Stations Pressure Air Temp Water Temp Dewpoint Dewpoint Depression Visibility Wind Speed Wind Dir Waves Ship Positions

Pu Dun

Last reported at 2015-Jul-02 12:13 UTC. Time now 2015-Jul-06 11:25 UTC.
Position N 37°17' E 123°21'.

Length 75 m; draft 5 m.

Type: Cargo ship. MMSI: 515213000.

Date/timePositionNaut miles runAvg speedWind from/ knotsBaromVisibWave heightAir tempDewpointWater temp
2015-Jul-02 12:13N 37°17' E 123°21'17 8.8
2015-Jul-02 10:14N 37°30' E 123°06'17 8.9
2015-Jul-02 08:19N 37°39' E 122°48'18 9.9
2015-Jul-02 06:31N 37°49' E 122°29'1110.1
2015-Jul-02 05:27N 37°54' E 122°18'910.0
2015-Jul-02 04:33N 37°59' E 122°08'132 9.9
2015-Jul-01 15:14N 38°42' E 119°29'6910.2
2015-Jul-01 08:29N 38°55' E 118°03'9 9.9
2015-Jul-01 07:33N 38°57' E 117°51'4 4.0
2015-Jul-01 06:33N 38°58' E 117°46'0 0.0
2015-Jul-01 05:33N 38°58' E 117°46'0 0.0
2015-Jul-01 04:33N 38°58' E 117°46'0 0.0
2015-Jul-01 03:33N 38°58' E 117°46'0 0.0
2015-Jul-01 02:33N 38°58' E 117°46'0 0.0
2015-Jul-01 01:33N 38°58' E 117°46'0 0.0
2015-Jul-01 00:33N 38°58' E 117°46'0 0.0
2015-Jun-30 23:33N 38°58' E 117°46'2 2.2
2015-Jun-30 22:33N 38°58' E 117°49'7 3.4
2015-Jun-30 20:27N 38°58' E 117°58'0 0.0
2015-Jun-30 07:04N 38°58' E 117°58'  
2015-Jun-27 21:24N 38°46' E 119°15'8 9.9
2015-Jun-27 20:33N 38°45' E 119°25'10 9.7
2015-Jun-27 19:32N 38°44' E 119°38'9210.2
2015-Jun-27 10:32N 38°23' E 121°32'1110.7
2015-Jun-27 09:33N 38°19' E 121°44'1110.9
2015-Jun-27 08:32N 38°14' E 121°57'1110.9
2015-Jun-27 07:33N 38°10' E 122°10'1111.0
2015-Jun-27 06:31N 38°05' E 122°23'2311.1
2015-Jun-27 04:26N 37°57' E 122°50'  

Dump ship's entire track history